Tyler, Washington
Current Conditions -  °F | °C
As of 9:58 PM on Thursday 30 Oct 2014 (Local Time) from KSKA Reporting Station
Broken Clouds Broken Clouds  
Wind Chill: 44°   Ceiling: 19000
Heat Index: 48°   Visibility: 10mi
Dew Point: 44°   Wind: 8mph
Humidity: 86%   Direction: 50°NE
Pressure: 29.82"   Gusts: NA
Location:  47.411°N, 117.628°W
Report Text: KSKA 310458Z AUTO 05007KT 10SM SCT150 BKN190 09/07 A2982 RMK AO2 SLP105 T00890066
Loading
Personal Weather Stations






























Interactive Weather Map
Tropical Storm Tracking
New forecast layout! Learn more

10-Day Weather Forecast

Advertisements
Track Severe Weather on mobile